Time;durP1;ratioP1;P1;durP2;ratioP2;P2;SDS_P1;SDS_P2;PMS_P1;PMS_P2;Temp;Humidity;BMP_temperature;BMP_pressure;BME280_temperature;BME280_humidity;BME280_pressure;Samples;Min_cycle;Max_cycle;Signal;HPM_P1;HPM_P2
2021/09/02 00:00:02;;;;;;;13.83;9.03;;;14.00;99.90;;;13.90;92.56;99035.19;5071831;28;20641;-79
2021/09/02 00:02:34;;;;;;;9.20;8.07;;;14.00;99.90;;;13.88;92.30;99038.88;5070696;28;20673;-79
2021/09/02 00:05:04;;;;;;;10.53;7.77;;;14.00;99.90;;;13.86;92.68;99031.13;5072110;28;21235;-79
2021/09/02 00:07:34;;;;;;;11.23;8.27;;;14.00;99.90;;;13.84;92.50;99032.97;5065462;28;20609;-79
2021/09/02 00:10:03;;;;;;;9.97;8.50;;;14.00;99.90;;;13.86;92.94;99031.13;5071928;28;21229;-79
2021/09/02 00:12:33;;;;;;;8.93;8.03;;;14.00;99.90;;;13.85;92.89;99021.56;5068686;28;20685;-79
2021/09/02 00:15:01;;;;;;;8.80;7.90;;;14.00;99.90;;;13.83;92.91;99026.06;5083877;28;20625;-79
2021/09/02 00:17:31;;;;;;;10.83;8.30;;;14.00;99.90;;;13.83;92.76;99018.19;5070957;28;20634;-79
2021/09/02 00:19:59;;;;;;;9.90;6.93;;;13.90;99.90;;;13.81;92.96;99017.44;5068454;28;21229;-79
2021/09/02 00:22:28;;;;;;;12.30;8.80;;;13.90;99.90;;;13.80;92.94;99017.53;5080057;28;20724;-79
2021/09/02 00:24:58;;;;;;;9.93;8.50;;;13.90;99.90;;;13.79;92.62;99008.84;5066085;28;20637;-79
2021/09/02 00:27:27;;;;;;;11.97;8.80;;;13.90;99.90;;;13.77;92.75;99007.25;5067479;28;20701;-79
2021/09/02 00:30:11;;;;;;;12.17;8.30;;;13.90;99.90;;;13.73;92.29;99004.00;5068284;28;20733;-79
2021/09/02 00:32:39;;;;;;;10.70;8.40;;;13.90;99.90;;;13.71;92.44;99016.41;5073033;28;21053;-79
2021/09/02 00:35:09;;;;;;;9.70;8.70;;;13.90;99.90;;;13.68;92.32;99018.34;5069084;28;20702;-79
2021/09/02 00:37:38;;;;;;;8.70;7.80;;;13.80;99.90;;;13.65;92.92;99011.56;5069075;28;20644;-79
2021/09/02 00:40:08;;;;;;;15.07;8.60;;;13.80;99.90;;;13.64;92.18;99003.78;5065979;28;20712;-79
2021/09/02 00:42:37;;;;;;;10.43;8.03;;;13.80;99.90;;;13.62;93.03;99003.06;5069939;28;21189;-79
2021/09/02 00:45:08;;;;;;;9.60;8.50;;;13.80;99.90;;;13.62;92.43;99000.44;5072791;28;21245;-79
2021/09/02 00:47:38;;;;;;;8.83;7.77;;;13.80;99.90;;;13.60;92.40;98999.69;5069591;28;20632;-79
2021/09/02 00:50:09;;;;;;;9.83;8.07;;;13.70;99.90;;;13.59;92.59;99005.88;5067842;28;20635;-79
2021/09/02 00:52:37;;;;;;;10.80;7.83;;;13.70;99.90;;;13.59;93.05;99007.63;5066845;28;20657;-79
2021/09/02 00:55:13;;;;;;;9.73;7.93;;;13.70;99.90;;;13.56;93.20;99005.22;5069074;28;21146;-79
2021/09/02 00:57:42;;;;;;;10.20;8.57;;;13.70;99.90;;;13.53;92.83;98992.31;5068326;28;20615;-79
2021/09/02 01:00:15;;;;;;;10.07;8.80;;;13.70;99.90;;;13.50;93.53;98989.91;5070832;28;20625;-79
2021/09/02 01:02:46;;;;;;;9.27;8.10;;;13.70;99.90;;;13.45;92.56;98998.06;5052054;28;21294;-79
2021/09/02 01:05:17;;;;;;;10.80;8.50;;;13.60;99.90;;;13.43;92.97;98996.50;5068000;28;21152;-79
2021/09/02 01:07:47;;;;;;;10.07;8.10;;;13.60;99.90;;;13.40;93.11;98986.22;5080252;28;20656;-79
2021/09/02 01:10:16;;;;;;;10.07;7.90;;;13.50;99.90;;;13.34;93.18;98994.47;5070031;28;20631;-79
2021/09/02 01:12:48;;;;;;;10.67;8.30;;;13.50;99.90;;;13.30;93.28;98996.44;5080557;28;20685;-79
2021/09/02 01:15:21;;;;;;;9.90;8.23;;;13.50;99.90;;;13.29;92.66;98993.91;5053205;28;20625;-79
2021/09/02 01:17:56;;;;;;;9.90;8.30;;;13.50;99.90;;;13.26;92.27;98991.47;5066735;28;21055;-79
2021/09/02 01:20:28;;;;;;;9.73;8.40;;;13.40;99.90;;;13.23;93.18;98989.91;5070117;28;20698;-79
2021/09/02 01:22:59;;;;;;;12.83;8.03;;;13.40;99.90;;;13.23;92.62;98989.09;5067925;28;20662;-79
2021/09/02 01:25:33;;;;;;;9.00;8.10;;;13.40;99.90;;;13.20;92.82;98990.13;5065747;28;20727;-79
2021/09/02 01:28:06;;;;;;;9.40;8.03;;;13.30;99.90;;;13.17;92.37;98994.72;5068544;28;20657;-79
2021/09/02 01:30:36;;;;;;;9.17;8.10;;;13.30;99.90;;;13.18;93.47;98995.56;5068048;28;20646;-79
2021/09/02 01:33:06;;;;;;;11.30;8.53;;;13.30;99.90;;;13.16;92.36;98992.19;5082799;28;21138;-79
2021/09/02 01:35:35;;;;;;;9.57;7.77;;;13.30;99.90;;;13.15;92.75;98990.50;5084553;28;21027;-79
2021/09/02 01:38:06;;;;;;;10.90;8.70;;;13.30;99.90;;;13.15;92.44;98999.19;5081601;28;20620;-79
2021/09/02 01:40:40;;;;;;;9.57;6.90;;;13.30;99.90;;;13.13;92.51;98990.63;5090589;28;20627;-79
2021/09/02 01:43:11;;;;;;;8.90;8.00;;;13.30;99.90;;;13.11;92.25;98994.25;5066745;28;20656;-79
2021/09/02 01:45:41;;;;;;;8.70;7.53;;;13.30;99.90;;;13.07;91.93;98985.75;5063889;28;21025;-79
2021/09/02 01:48:10;;;;;;;10.97;8.30;;;13.20;99.90;;;13.03;92.17;98986.88;5072151;28;20712;-79
2021/09/02 01:50:41;;;;;;;11.43;7.90;;;13.20;99.90;;;13.02;92.70;98984.38;5066043;28;20628;-79
2021/09/02 01:53:15;;;;;;;10.40;7.90;;;13.20;99.90;;;12.98;92.75;98973.25;5066928;28;20636;-79
2021/09/02 01:55:47;;;;;;;8.97;7.17;;;13.20;99.90;;;12.98;92.90;98975.03;5068548;28;20627;-79
2021/09/02 01:58:16;;;;;;;9.33;8.30;;;13.10;99.90;;;12.96;92.33;98985.63;5066350;28;20639;-79
2021/09/02 02:00:45;;;;;;;10.87;8.47;;;13.10;99.90;;;12.95;92.35;98976.06;5071666;28;21072;-79
2021/09/02 02:03:14;;;;;;;11.20;8.13;;;13.10;99.90;;;12.93;92.78;98970.09;5047314;28;20659;-79
2021/09/02 02:05:43;;;;;;;11.67;8.70;;;13.10;99.90;;;12.88;92.02;98969.53;5052246;28;20632;-79
2021/09/02 02:08:16;;;;;;;9.70;8.10;;;13.00;99.90;;;12.86;92.22;98979.25;5063904;28;20624;-79
2021/09/02 02:10:46;;;;;;;9.10;8.07;;;13.00;99.90;;;12.86;92.53;98976.66;5068792;28;21163;-79
2021/09/02 02:13:15;;;;;;;11.43;8.77;;;13.00;99.90;;;12.86;93.61;98975.81;5055620;28;20724;-79
2021/09/02 02:15:45;;;;;;;10.20;8.20;;;13.00;99.90;;;12.81;92.56;98973.47;5049449;28;20624;-79
2021/09/02 02:18:14;;;;;;;10.77;7.70;;;12.90;99.90;;;12.73;91.71;98970.50;5065520;28;20619;-79
2021/09/02 02:20:43;;;;;;;7.50;6.70;;;12.90;99.90;;;12.67;92.82;98966.56;5048381;28;21096;-79
2021/09/02 02:23:11;;;;;;;8.97;7.00;;;12.80;99.90;;;12.62;92.08;98969.47;5059786;28;20718;-79
2021/09/02 02:25:40;;;;;;;8.13;7.13;;;12.80;99.90;;;12.57;91.50;98973.28;5065426;28;21186;-79
2021/09/02 02:28:10;;;;;;;11.03;7.30;;;12.70;99.90;;;12.54;91.02;98973.47;5069783;28;20612;-79
2021/09/02 02:30:38;;;;;;;10.67;7.87;;;12.70;99.90;;;12.55;91.63;98969.94;5066685;28;21432;-79
2021/09/02 02:33:07;;;;;;;8.70;7.80;;;12.70;99.90;;;12.54;92.66;98976.97;5072359;28;20632;-79
2021/09/02 02:35:41;;;;;;;11.43;8.70;;;12.70;99.90;;;12.56;93.87;98969.03;5069299;28;20618;-79
2021/09/02 02:38:10;;;;;;;10.80;8.70;;;12.70;99.90;;;12.57;94.41;98960.22;5069156;28;20722;-79
2021/09/02 02:40:39;;;;;;;15.20;8.80;;;12.70;99.90;;;12.58;93.53;98962.72;5073167;28;20703;-79
2021/09/02 02:43:08;;;;;;;10.33;8.50;;;12.70;99.90;;;12.59;94.09;98960.97;5071290;28;20611;-79
2021/09/02 02:45:38;;;;;;;10.23;9.23;;;12.70;99.90;;;12.55;93.95;98968.16;5070810;28;20637;-79
2021/09/02 02:48:06;;;;;;;9.67;8.37;;;12.70;99.90;;;12.55;94.42;98962.09;5072618;28;20640;-79
2021/09/02 02:50:35;;;;;;;9.77;8.77;;;12.70;99.90;;;12.57;93.44;98961.06;5086350;28;21382;-79
2021/09/02 02:53:04;;;;;;;10.40;8.73;;;12.70;99.90;;;12.57;92.86;98957.59;5069724;28;20979;-79
2021/09/02 02:55:32;;;;;;;10.33;8.53;;;12.70;99.90;;;12.56;94.39;98958.56;5069551;28;20638;-79
2021/09/02 02:58:01;;;;;;;10.77;8.80;;;12.70;99.90;;;12.53;93.46;98959.56;5069918;28;20684;-79
2021/09/02 03:00:30;;;;;;;9.77;8.33;;;12.70;99.90;;;12.53;94.98;98963.97;5073643;28;20625;-79
2021/09/02 03:03:00;;;;;;;10.43;8.57;;;12.70;99.90;;;12.52;93.86;98965.72;5071237;28;20616;-79
2021/09/02 03:05:29;;;;;;;9.70;8.03;;;12.60;99.90;;;12.45;94.40;98967.06;5071145;28;20786;-79
2021/09/02 03:07:58;;;;;;;10.93;8.30;;;12.60;99.90;;;12.42;94.32;98971.66;5070530;28;20620;-79
2021/09/02 03:10:26;;;;;;;10.10;8.77;;;12.60;99.90;;;12.39;93.44;98969.22;5068220;28;21183;-79
2021/09/02 03:12:55;;;;;;;9.60;8.40;;;12.50;99.90;;;12.37;93.82;98961.47;5070316;28;20887;-79
2021/09/02 03:15:24;;;;;;;10.90;8.57;;;12.50;99.90;;;12.39;93.26;98962.22;5088550;28;20638;-79
2021/09/02 03:17:53;;;;;;;11.37;9.20;;;12.50;99.90;;;12.41;95.03;98964.72;5072709;28;20658;-79
2021/09/02 03:20:23;;;;;;;11.50;9.50;;;12.60;99.90;;;12.42;94.36;98967.25;5068421;28;20713;-79
2021/09/02 03:22:51;;;;;;;12.03;9.07;;;12.60;99.90;;;12.44;95.03;98959.31;5067487;28;21027;-79
2021/09/02 03:25:20;;;;;;;11.97;9.50;;;12.60;99.90;;;12.44;94.61;98964.53;5067812;28;20668;-79
2021/09/02 03:27:50;;;;;;;13.20;10.80;;;12.50;99.90;;;12.45;93.48;98966.22;5070199;28;20716;-79
2021/09/02 03:30:18;;;;;;;10.80;9.70;;;12.60;99.90;;;12.44;93.91;98969.78;5087282;28;20638;-79
2021/09/02 03:32:48;;;;;;;11.63;9.10;;;12.50;99.90;;;12.46;94.72;98963.53;5071845;28;21245;-79
2021/09/02 03:35:17;;;;;;;10.40;9.00;;;12.60;99.90;;;12.45;94.71;98967.06;5068312;28;20714;-79
2021/09/02 03:37:47;;;;;;;11.87;9.60;;;12.60;99.90;;;12.47;95.29;98970.41;5084538;28;20619;-79
2021/09/02 03:40:15;;;;;;;11.00;9.17;;;12.60;99.90;;;12.44;95.09;98961.94;5083563;28;20649;-79
2021/09/02 03:42:44;;;;;;;11.00;9.27;;;12.60;99.90;;;12.44;95.42;98959.31;5066613;28;20634;-79
2021/09/02 03:45:13;;;;;;;16.53;9.40;;;12.50;99.90;;;12.45;94.31;98967.06;5068961;28;20664;-79
2021/09/02 03:47:47;;;;;;;12.43;9.10;;;12.60;99.90;;;12.43;95.35;98973.31;5084274;28;20664;-79
2021/09/02 03:50:17;;;;;;;12.93;9.77;;;12.50;99.90;;;12.39;94.32;98977.06;5072023;28;20639;-79
2021/09/02 03:52:47;;;;;;;11.10;9.00;;;12.50;99.90;;;12.36;95.19;98972.03;5070063;28;21219;-79
2021/09/02 03:55:16;;;;;;;12.37;10.20;;;12.50;99.90;;;12.37;95.88;98968.47;5069409;28;20647;-79
2021/09/02 03:57:44;;;;;;;13.67;9.70;;;12.50;99.90;;;12.38;95.80;98976.22;5067130;28;20731;-79
2021/09/02 04:00:14;;;;;;;13.30;9.43;;;12.50;99.90;;;12.36;93.63;98967.63;5072092;28;20726;-79
2021/09/02 04:02:43;;;;;;;16.97;9.53;;;12.40;99.90;;;12.33;93.57;98965.19;5063713;28;20942;-79
2021/09/02 04:05:12;;;;;;;12.70;9.40;;;12.40;99.90;;;12.37;93.59;98971.06;5072061;28;20647;-79
2021/09/02 04:07:41;;;;;;;14.27;9.53;;;12.50;99.90;;;12.31;95.33;98974.06;5064225;28;20698;-79
2021/09/02 04:10:12;;;;;;;10.70;8.93;;;12.40;99.90;;;12.31;93.97;98971.44;5074783;28;20635;-79
2021/09/02 04:12:41;;;;;;;11.97;9.40;;;12.40;99.90;;;12.32;94.85;98973.97;5068497;28;20727;-79
2021/09/02 04:15:10;;;;;;;12.20;9.40;;;12.40;99.90;;;12.26;94.48;98976.13;5051581;28;20613;-79
2021/09/02 04:17:39;;;;;;;14.70;10.10;;;12.30;99.90;;;12.28;94.01;98976.88;5067207;28;20975;-79
2021/09/02 04:20:08;;;;;;;11.70;9.53;;;12.40;99.90;;;12.27;94.52;98969.97;5084379;28;21198;-79
2021/09/02 04:22:37;;;;;;;12.73;10.20;;;12.40;99.90;;;12.27;95.69;98972.59;5068344;28;20630;-79
2021/09/02 04:25:06;;;;;;;11.50;8.90;;;12.40;99.90;;;12.28;95.31;98969.03;5048300;28;20665;-79
2021/09/02 04:27:37;;;;;;;13.07;10.03;;;12.30;99.90;;;12.29;94.29;98975.94;5068550;28;20610;-79
2021/09/02 04:30:07;;;;;;;16.73;10.60;;;12.40;99.90;;;12.31;94.69;98969.69;5067344;28;20696;-79
2021/09/02 04:32:35;;;;;;;12.33;10.17;;;12.40;99.90;;;12.30;94.62;98967.16;5065705;28;20616;-79
2021/09/02 04:35:05;;;;;;;15.73;10.60;;;12.40;99.90;;;12.40;96.25;98973.50;5067432;28;20656;-79
2021/09/02 04:37:38;;;;;;;12.80;10.43;;;12.50;99.90;;;12.44;94.93;98980.25;5076277;28;20611;-79
2021/09/02 04:40:09;;;;;;;13.73;11.20;;;12.50;99.90;;;12.47;94.90;98970.41;5069919;28;20641;-79
2021/09/02 04:42:39;;;;;;;14.00;11.60;;;12.60;99.90;;;12.56;95.63;98969.03;5081569;28;20719;-79
2021/09/02 04:45:09;;;;;;;13.53;11.17;;;12.60;99.90;;;12.61;96.64;98964.31;5061931;28;20663;-79
2021/09/02 04:47:38;;;;;;;12.70;11.00;;;12.70;99.90;;;12.68;96.63;98973.50;5048297;28;20614;-79
2021/09/02 04:50:12;;;;;;;15.30;11.80;;;12.70;99.90;;;12.75;96.52;98971.22;5085168;28;20711;-79
2021/09/02 04:52:41;;;;;;;15.90;11.47;;;12.80;99.90;;;12.85;95.89;98979.38;5066957;28;21168;-79
2021/09/02 04:55:11;;;;;;;12.40;10.30;;;12.90;99.90;;;12.90;96.12;98980.75;5083093;28;20710;-79
2021/09/02 04:57:41;;;;;;;13.50;10.83;;;13.00;99.90;;;12.90;94.74;98980.75;5064023;28;21486;-79
2021/09/02 05:00:12;;;;;;;11.37;9.70;;;13.00;99.90;;;12.95;95.62;98978.69;5084678;28;21382;-79
2021/09/02 05:02:41;;;;;;;12.33;10.50;;;13.00;99.90;;;13.04;95.74;98987.75;5055427;28;21249;-79
2021/09/02 05:05:10;;;;;;;13.63;10.50;;;13.10;99.90;;;13.16;95.92;98990.41;5083950;28;20671;-79
2021/09/02 05:07:38;;;;;;;15.27;10.07;;;13.20;99.90;;;13.30;94.78;98988.56;5081615;28;20631;-79
2021/09/02 05:10:09;;;;;;;12.13;10.10;;;13.30;99.90;;;13.47;94.30;98990.09;5065606;28;20632;-79
2021/09/02 05:12:38;;;;;;;11.60;10.27;;;13.50;99.90;;;13.62;93.45;98987.31;5046979;28;20660;-79
2021/09/02 05:15:09;;;;;;;12.40;10.30;;;13.60;99.90;;;13.80;92.91;98997.44;5068284;28;20616;-79
2021/09/02 05:17:37;;;;;;;12.43;10.37;;;13.80;99.90;;;13.98;92.30;99000.59;5066707;28;20633;-79
2021/09/02 05:20:08;;;;;;;12.30;10.17;;;13.90;99.90;;;14.18;91.65;98995.72;5065912;28;20660;-79
2021/09/02 05:22:36;;;;;;;12.10;9.70;;;14.10;99.90;;;14.37;91.14;98990.88;5046594;28;20670;-79
2021/09/02 05:25:06;;;;;;;13.73;10.60;;;14.30;99.90;;;14.57;89.74;98991.19;5066231;28;20656;-79
2021/09/02 05:27:35;;;;;;;11.60;10.20;;;14.50;99.90;;;14.72;89.42;98993.56;5065817;28;20621;-79
2021/09/02 05:30:09;;;;;;;12.13;10.07;;;14.70;99.90;;;14.94;89.18;99000.75;5065186;28;20733;-79
2021/09/02 05:32:38;;;;;;;11.60;10.40;;;14.90;99.90;;;15.11;86.78;99006.50;5069416;28;20633;-79
2021/09/02 05:35:08;;;;;;;13.27;9.73;;;15.00;99.90;;;15.30;87.44;99004.25;5061054;28;20720;-79
2021/09/02 05:37:37;;;;;;;13.07;9.67;;;15.20;99.90;;;15.46;86.10;99005.66;5066701;28;20637;-79
2021/09/02 05:40:08;;;;;;;11.43;10.20;;;15.40;99.90;;;15.67;86.83;99010.16;5066046;28;20622;-79
2021/09/02 05:42:37;;;;;;;10.83;8.90;;;15.60;99.90;;;15.88;84.68;99011.19;5079625;28;21028;-79
2021/09/02 05:45:09;;;;;;;12.67;10.03;;;15.80;99.90;;;16.07;84.00;99008.84;5066666;28;20660;-79
2021/09/02 05:47:38;;;;;;;13.70;10.10;;;16.00;99.90;;;16.11;84.53;99005.03;5067823;28;20643;-79
2021/09/02 05:50:08;;;;;;;11.90;9.50;;;16.00;99.90;;;16.32;82.02;99011.34;5066438;28;20664;-79
2021/09/02 05:52:37;;;;;;;11.43;8.77;;;16.20;99.90;;;16.52;82.22;99009.69;5066427;28;20630;-79
2021/09/02 05:55:08;;;;;;;12.00;9.07;;;16.40;99.90;;;16.78;82.53;99008.50;5069583;28;20652;-79
2021/09/02 05:57:36;;;;;;;10.10;8.90;;;16.60;99.90;;;17.02;81.45;99006.56;5065759;28;20617;-79
2021/09/02 06:00:08;;;;;;;12.23;9.57;;;16.90;99.70;;;17.26;81.04;99016.00;5056735;28;20658;-79
2021/09/02 06:02:40;;;;;;;10.60;9.53;;;17.10;99.80;;;17.33;79.78;99001.34;5068525;28;21044;-79
2021/09/02 06:05:10;;;;;;;11.03;9.83;;;17.20;98.60;;;17.43;79.82;99012.84;5069980;28;20998;-79
2021/09/02 06:07:39;;;;;;;10.67;8.87;;;17.30;98.40;;;17.57;78.69;99004.63;5071439;28;20739;-79
2021/09/02 06:10:09;;;;;;;10.13;9.00;;;17.50;97.70;;;17.74;78.61;99010.22;5073942;28;20961;-79
2021/09/02 06:12:38;;;;;;;10.80;9.33;;;17.60;97.70;;;17.95;78.21;99008.41;5070004;28;20625;-79
2021/09/02 06:15:11;;;;;;;11.27;8.90;;;17.80;97.30;;;18.13;78.94;99017.47;5073151;28;20622;-79
2021/09/02 06:17:39;;;;;;;10.80;8.93;;;18.00;97.50;;;18.25;76.27;99003.25;5071362;28;20666;-79
2021/09/02 06:20:10;;;;;;;9.97;8.87;;;18.10;96.20;;;18.48;76.61;99005.63;5069579;28;20676;-79
2021/09/02 06:22:39;;;;;;;10.33;9.30;;;18.30;96.50;;;18.65;74.80;99008.47;5069501;28;20629;-79
2021/09/02 06:25:09;;;;;;;10.33;8.67;;;18.50;95.30;;;18.79;75.26;99000.19;5050673;28;21051;-79
2021/09/02 06:27:39;;;;;;;9.93;8.23;;;18.60;94.80;;;18.96;74.99;98989.84;5050838;28;20630;-79
2021/09/02 06:30:09;;;;;;;10.70;9.07;;;18.80;94.80;;;19.11;75.04;98998.25;5069252;28;20771;-79
2021/09/02 06:32:38;;;;;;;10.50;8.87;;;19.00;95.30;;;19.31;74.44;99002.63;5073833;28;20711;-79
2021/09/02 06:35:08;;;;;;;10.47;8.47;;;19.10;95.10;;;19.47;74.14;99009.91;5085232;28;20676;-79
2021/09/02 06:37:37;;;;;;;11.57;8.40;;;19.30;94.40;;;19.63;74.67;99006.72;5088496;28;20660;-79
2021/09/02 06:40:07;;;;;;;8.97;8.07;;;19.40;94.80;;;19.82;74.47;99012.03;5066836;28;20654;-79
2021/09/02 06:42:36;;;;;;;10.17;8.47;;;19.60;94.30;;;19.96;73.91;99010.63;5070588;28;20724;-79
2021/09/02 06:45:08;;;;;;;9.23;8.27;;;19.70;93.60;;;20.16;72.96;99014.13;5052850;28;20638;-79
2021/09/02 06:47:39;;;;;;;9.50;8.17;;;19.90;93.50;;;20.32;72.94;99014.38;5068863;28;20761;-79
2021/09/02 06:50:10;;;;;;;9.27;8.37;;;20.10;92.80;;;20.41;72.69;99017.00;5084858;28;20674;-80
2021/09/02 06:52:39;;;;;;;12.10;8.73;;;20.20;93.30;;;20.52;74.93;99015.03;5056183;28;21037;-80
2021/09/02 06:55:09;;;;;;;10.23;9.13;;;20.30;93.90;;;20.61;73.56;99014.19;5089030;28;20605;-79
2021/09/02 06:57:40;;;;;;;10.60;8.70;;;20.40;93.20;;;20.67;71.99;99024.22;5067106;28;20624;-79
2021/09/02 07:00:12;;;;;;;9.97;8.33;;;20.50;92.70;;;20.60;71.19;99011.66;5073868;28;21235;-79
2021/09/02 07:02:41;;;;;;;9.50;7.87;;;20.40;92.10;;;20.59;70.47;99013.47;5070601;28;20719;-79
2021/09/02 07:05:12;;;;;;;9.73;8.07;;;20.40;91.40;;;20.67;70.60;99016.25;5072614;28;20677;-79
2021/09/02 07:07:40;;;;;;;8.60;7.67;;;20.50;91.20;;;20.48;70.36;99007.50;5083158;28;20757;-79
2021/09/02 07:10:11;;;;;;;7.77;6.97;;;20.40;90.50;;;20.58;70.54;99006.50;5069734;28;20630;-79
2021/09/02 07:12:40;;;;;;;9.73;8.23;;;20.40;91.10;;;20.65;69.72;99012.88;5065634;28;20972;-79
2021/09/02 07:15:11;;;;;;;9.67;8.37;;;20.50;90.40;;;20.58;69.01;99011.81;5067243;28;21074;-79
2021/09/02 07:17:40;;;;;;;12.60;8.50;;;20.40;90.30;;;20.65;69.97;99009.41;5067566;28;20679;-79
2021/09/02 07:20:10;;;;;;;8.73;7.83;;;20.50;90.50;;;20.69;71.57;99016.97;5051484;28;21272;-79
2021/09/02 07:22:39;;;;;;;9.50;7.40;;;20.50;90.90;;;20.87;70.91;99015.22;5071948;28;20682;-79
2021/09/02 07:25:09;;;;;;;8.47;7.67;;;20.60;90.60;;;21.11;71.00;99020.81;5052380;28;20624;-79
2021/09/02 07:27:38;;;;;;;9.03;7.90;;;20.80;90.90;;;21.25;69.92;99018.53;5070509;28;21260;-79
2021/09/02 07:30:08;;;;;;;8.20;7.13;;;21.00;90.60;;;21.43;69.95;99025.53;5069012;28;20639;-79
2021/09/02 07:32:38;;;;;;;8.60;7.80;;;21.10;90.70;;;21.62;68.22;99028.13;5072970;28;21196;-79
2021/09/02 07:35:08;;;;;;;8.50;7.37;;;21.30;89.90;;;21.63;68.10;99027.13;5069247;28;21171;-79
2021/09/02 07:37:36;;;;;;;10.10;7.80;;;21.40;88.40;;;21.80;70.07;99027.13;5057628;28;20631;-79
2021/09/02 07:40:07;;;;;;;9.90;7.83;;;21.60;90.20;;;22.04;68.94;99034.50;5091223;28;20608;-79
2021/09/02 07:42:35;;;;;;;8.87;7.67;;;21.70;90.00;;;22.05;67.93;99037.00;5078528;28;20619;-79
2021/09/02 07:45:08;;;;;;;8.90;7.23;;;21.80;87.20;;;22.11;67.21;99038.22;5073452;28;20637;-79
2021/09/02 07:47:38;;;;;;;9.67;7.70;;;21.80;86.30;;;22.26;67.78;99040.22;5068982;28;21179;-79
2021/09/02 07:50:09;;;;;;;8.47;7.60;;;22.00;87.00;;;22.43;67.20;99036.69;5054343;28;21000;-79
2021/09/02 07:52:39;;;;;;;7.70;6.93;;;22.10;87.20;;;22.46;67.64;99037.22;5083164;28;20657;-79
2021/09/02 07:55:10;;;;;;;8.20;7.30;;;22.20;87.30;;;22.54;66.90;99039.13;5066596;28;20656;-79
2021/09/02 07:57:43;;;;;;;8.30;7.40;;;22.30;85.00;;;22.60;66.83;99038.50;5066938;28;20613;-79
2021/09/02 08:00:13;;;;;;;7.83;6.83;;;22.40;85.00;;;22.71;66.39;99040.88;5071435;28;20668;-79
2021/09/02 08:02:43;;;;;;;7.90;7.10;;;22.50;84.70;;;22.87;65.54;99047.13;5066226;28;20650;-79
2021/09/02 08:05:12;;;;;;;7.30;6.60;;;22.60;84.50;;;22.83;66.15;99049.25;5068353;28;20628;-79
2021/09/02 08:07:47;;;;;;;9.13;7.10;;;22.70;84.80;;;22.81;65.64;99037.13;5046851;28;20689;-80
2021/09/02 08:10:17;;;;;;;8.67;6.67;;;22.60;83.00;;;22.85;65.90;99044.63;5061378;28;20738;-79
2021/09/02 08:12:46;;;;;;;9.40;6.53;;;22.70;82.80;;;22.91;66.13;99044.00;5071078;28;20629;-79
2021/09/02 08:15:16;;;;;;;8.23;7.13;;;22.70;83.50;;;22.89;64.96;99047.81;5070460;28;21179;-79
2021/09/02 08:17:48;;;;;;;7.90;7.00;;;22.70;81.70;;;22.69;65.14;99046.34;5086034;28;20643;-79
2021/09/02 08:20:18;;;;;;;10.17;7.33;;;22.60;81.50;;;22.44;65.69;99057.81;5056266;28;20673;-79
2021/09/02 08:22:47;;;;;;;9.37;7.47;;;22.40;80.80;;;22.43;66.00;99052.63;5066632;28;20664;-79
2021/09/02 08:25:17;;;;;;;8.10;7.30;;;22.40;81.70;;;22.48;66.60;99042.38;5067348;28;21136;-79
2021/09/02 08:27:46;;;;;;;8.63;7.73;;;22.30;83.20;;;22.59;66.52;99053.59;5070418;28;20693;-79
2021/09/02 08:30:16;;;;;;;8.07;6.60;;;22.40;84.20;;;22.51;66.25;99047.41;5068594;28;20746;-79
2021/09/02 08:32:48;;;;;;;7.97;7.17;;;22.30;82.20;;;22.48;67.15;99045.88;5050030;28;21055;-79
2021/09/02 08:35:21;;;;;;;10.27;7.10;;;22.30;83.30;;;22.47;67.44;99044.19;5064118;28;20617;-79
2021/09/02 08:37:50;;;;;;;9.03;7.57;;;22.30;83.60;;;22.61;66.80;99042.78;5063999;28;20683;-79
2021/09/02 08:40:21;;;;;;;8.23;7.37;;;22.40;83.30;;;22.73;66.35;99050.34;5069701;28;20613;-79
2021/09/02 08:42:51;;;;;;;8.90;7.23;;;22.60;83.20;;;22.93;67.17;99051.84;5067656;28;20681;-79
2021/09/02 08:45:19;;;;;;;7.70;6.80;;;22.70;84.90;;;22.97;66.46;99054.06;5070920;28;20723;-79
2021/09/02 08:47:51;;;;;;;8.27;7.23;;;22.80;84.10;;;23.14;68.32;99045.16;5059506;28;21201;-79
2021/09/02 08:50:23;;;;;;;7.90;7.10;;;22.90;86.00;;;23.34;66.17;99044.72;5070570;28;20624;-79
2021/09/02 08:52:53;;;;;;;7.87;7.07;;;23.10;83.60;;;23.29;65.05;99038.25;5050515;28;20652;-80
2021/09/02 08:55:22;;;;;;;7.90;7.20;;;23.10;81.70;;;23.25;67.27;99044.88;5047760;28;20677;-79
2021/09/02 08:57:54;;;;;;;8.93;7.17;;;23.10;83.20;;;23.32;66.12;99044.06;5081994;28;20643;-79
2021/09/02 09:00:26;;;;;;;8.23;7.33;;;23.20;82.50;;;23.39;65.41;99036.25;5070370;28;20678;-79
2021/09/02 09:03:03;;;;;;;8.17;7.20;;;23.20;81.50;;;23.50;67.38;99030.63;5065035;28;20638;-79
2021/09/02 09:05:34;;;;;;;8.30;7.50;;;23.30;83.90;;;23.58;64.39;99031.50;5052422;28;21268;-79
2021/09/02 09:08:08;;;;;;;8.10;7.30;;;23.40;80.10;;;23.53;65.71;99031.16;5083534;28;20652;-79
2021/09/02 09:10:39;;;;;;;8.27;7.20;;;23.30;81.60;;;23.48;65.92;99022.78;5074268;28;20665;-79
2021/09/02 09:13:09;;;;;;;8.77;7.60;;;23.30;80.30;;;23.47;65.21;99021.16;5068225;28;20610;-79
2021/09/02 09:15:40;;;;;;;14.50;8.57;;;23.30;80.60;;;23.70;68.39;99027.56;5067187;28;20626;-79
2021/09/02 09:18:19;;;;;;;8.50;7.60;;;23.50;85.10;;;23.94;66.83;99024.94;5069819;28;20713;-79
2021/09/02 09:21:06;;;;;;;11.33;7.80;;;23.70;83.60;;;23.79;65.52;99019.41;5067416;28;20758;-79
2021/09/02 09:23:57;;;;;;;9.33;7.87;;;23.60;80.70;;;23.87;66.52;99030.09;5062447;28;20628;-79
2021/09/02 09:26:27;;;;;;;9.20;8.20;;;23.60;81.70;;;24.00;66.37;99016.28;5065818;28;20654;-80
2021/09/02 09:28:58;;;;;;;8.30;7.50;;;23.80;81.60;;;24.03;64.97;99023.97;5065970;28;20702;-80
2021/09/02 09:31:32;;;;;;;10.50;8.53;;;23.80;81.10;;;23.99;64.34;99025.28;5068340;28;20631;-79
2021/09/02 09:34:06;;;;;;;8.20;7.40;;;23.70;79.00;;;23.93;63.30;99024.09;5067861;28;20932;-79
2021/09/02 09:36:37;;;;;;;8.33;7.47;;;23.80;78.10;;;23.75;63.68;99030.56;5066471;28;20633;-79
2021/09/02 09:39:08;;;;;;;11.53;7.43;;;23.60;76.40;;;23.77;62.55;99028.59;5068026;28;20658;-79
2021/09/02 09:41:42;;;;;;;7.77;6.97;;;23.60;76.30;;;23.79;64.13;99015.94;5081182;28;20686;-79
2021/09/02 09:44:23;;;;;;;8.23;7.40;;;23.60;77.50;;;23.99;64.46;99010.09;5071056;28;20665;-79
2021/09/02 09:47:14;;;;;;;8.10;7.13;;;23.80;79.00;;;24.12;63.50;99010.44;5069263;28;20689;-80
2021/09/02 09:49:52;;;;;;;8.13;7.33;;;23.90;76.80;;;24.13;63.70;98997.94;5057504;28;21145;-80
2021/09/02 09:52:28;;;;;;;8.80;7.90;;;23.90;77.20;;;24.13;63.92;99005.94;5064844;28;20746;-80
2021/09/02 09:55:08;;;;;;;8.63;7.47;;;24.00;78.50;;;24.19;62.91;99004.28;5081939;28;20621;-80
2021/09/02 09:57:39;;;;;;;9.90;7.80;;;24.00;76.30;;;24.11;60.46;99006.09;5082722;28;20623;-79
2021/09/02 10:00:10;;;;;;;8.90;7.97;;;23.90;73.00;;;24.06;63.10;99007.63;5066867;28;20684;-80
2021/09/02 10:02:40;;;;;;;8.10;7.30;;;23.90;74.50;;;24.01;60.38;98992.13;5068649;28;20623;-79
2021/09/02 10:05:13;;;;;;;6.60;6.00;;;23.80;71.70;;;23.93;59.78;98991.28;5085335;28;20702;-80
2021/09/02 10:07:45;;;;;;;7.20;6.33;;;23.70;70.70;;;23.78;61.80;98998.25;5083337;28;20694;-79
2021/09/02 10:10:15;;;;;;;8.53;7.40;;;23.60;70.80;;;23.72;61.09;98996.25;5066484;28;21022;-79
2021/09/02 10:12:47;;;;;;;7.00;6.03;;;23.60;70.70;;;23.81;60.04;98992.59;5065778;28;20638;-79
2021/09/02 10:15:18;;;;;;;7.20;6.50;;;23.60;72.00;;;23.72;59.95;98994.44;5072133;28;20714;-79
2021/09/02 10:17:48;;;;;;;7.80;6.63;;;23.60;70.50;;;23.72;60.54;98989.09;5066993;28;21210;-79
2021/09/02 10:20:21;;;;;;;6.57;5.83;;;23.60;71.80;;;23.78;61.95;98987.59;5050589;28;20706;-79
2021/09/02 10:22:55;;;;;;;6.27;5.67;;;23.60;71.00;;;23.80;59.77;98986.44;5067788;28;20639;-79
2021/09/02 10:25:41;;;;;;;6.57;5.87;;;23.60;70.00;;;23.74;60.47;98975.63;5068618;28;21031;-80
2021/09/02 10:28:13;;;;;;;8.17;7.00;;;23.50;70.30;;;23.77;61.45;98985.94;5064158;28;20666;-79